sensor_id;sensor_type;location;lat;lon;timestamp;pressure;altitude;pressure_sealevel;temperature;humidity
63190;BME280;49286;44.460;26.114;2023-02-04T00:00:48;100182.13;;;0.92;100.00
63190;BME280;49286;44.460;26.114;2023-02-04T00:03:14;100215.13;;;1.00;100.00
63190;BME280;49286;44.460;26.114;2023-02-04T00:05:41;100236.44;;;1.19;100.00
63190;BME280;49286;44.460;26.114;2023-02-04T00:08:06;99984.38;;;-0.27;100.00
63190;BME280;49286;44.460;26.114;2023-02-04T00:10:33;100149.94;;;0.82;100.00
63190;BME280;49286;44.460;26.114;2023-02-04T00:12:58;100218.63;;;1.26;100.00
63190;BME280;49286;44.460;26.114;2023-02-04T00:15:24;100198.38;;;1.13;100.00
63190;BME280;49286;44.460;26.114;2023-02-04T00:17:49;100097.75;;;0.67;100.00
63190;BME280;49286;44.460;26.114;2023-02-04T00:20:15;100214.50;;;1.32;100.00
63190;BME280;49286;44.460;26.114;2023-02-04T00:22:41;100170.97;;;1.18;100.00
63190;BME280;49286;44.460;26.114;2023-02-04T00:25:06;100086.91;;;0.77;100.00
63190;BME280;49286;44.460;26.114;2023-02-04T00:27:32;100043.50;;;0.41;100.00
63190;BME280;49286;44.460;26.114;2023-02-04T00:29:57;100055.00;;;0.49;100.00
63190;BME280;49286;44.460;26.114;2023-02-04T00:32:23;100193.50;;;1.48;100.00
63190;BME280;49286;44.460;26.114;2023-02-04T00:34:49;100132.91;;;1.13;100.00
63190;BME280;49286;44.460;26.114;2023-02-04T00:37:17;100187.09;;;1.37;100.00
63190;BME280;49286;44.460;26.114;2023-02-04T00:39:43;100155.91;;;1.32;100.00
63190;BME280;49286;44.460;26.114;2023-02-04T00:42:09;100179.56;;;1.43;100.00
63190;BME280;49286;44.460;26.114;2023-02-04T00:44:34;100178.09;;;1.51;100.00
63190;BME280;49286;44.460;26.114;2023-02-04T00:47:01;100127.28;;;1.26;100.00
63190;BME280;49286;44.460;26.114;2023-02-04T00:49:26;100195.63;;;1.34;100.00
63190;BME280;49286;44.460;26.114;2023-02-04T00:51:52;100168.00;;;1.33;100.00
63190;BME280;49286;44.460;26.114;2023-02-04T00:54:17;100061.38;;;0.86;100.00
63190;BME280;49286;44.460;26.114;2023-02-04T00:56:43;100137.91;;;1.34;100.00
63190;BME280;49286;44.460;26.114;2023-02-04T00:59:09;100159.75;;;1.43;100.00
63190;BME280;49286;44.460;26.114;2023-02-04T01:01:35;100157.25;;;1.46;100.00
63190;BME280;49286;44.460;26.114;2023-02-04T01:04:01;100090.56;;;1.09;100.00
63190;BME280;49286;44.460;26.114;2023-02-04T01:06:28;100134.75;;;1.44;100.00
63190;BME280;49286;44.460;26.114;2023-02-04T01:08:53;100147.06;;;1.51;100.00
63190;BME280;49286;44.460;26.114;2023-02-04T01:11:19;100127.06;;;1.45;100.00
63190;BME280;49286;44.460;26.114;2023-02-04T01:13:44;100005.31;;;0.82;100.00
63190;BME280;49286;44.460;26.114;2023-02-04T01:16:10;100118.69;;;1.54;100.00
63190;BME280;49286;44.460;26.114;2023-02-04T01:18:36;99983.44;;;0.71;100.00
63190;BME280;49286;44.460;26.114;2023-02-04T01:21:02;100073.31;;;1.35;100.00
63190;BME280;49286;44.460;26.114;2023-02-04T01:23:27;100101.50;;;1.55;100.00
63190;BME280;49286;44.460;26.114;2023-02-04T01:25:53;99983.81;;;0.83;100.00
63190;BME280;49286;44.460;26.114;2023-02-04T01:28:18;100010.00;;;0.94;100.00
63190;BME280;49286;44.460;26.114;2023-02-04T01:30:44;99946.59;;;0.76;100.00
63190;BME280;49286;44.460;26.114;2023-02-04T01:33:09;100062.44;;;1.45;100.00
63190;BME280;49286;44.460;26.114;2023-02-04T01:35:35;99935.81;;;0.62;100.00
63190;BME280;49286;44.460;26.114;2023-02-04T01:38:00;100064.41;;;1.54;100.00
63190;BME280;49286;44.460;26.114;2023-02-04T01:40:26;100058.94;;;1.43;100.00
63190;BME280;49286;44.460;26.114;2023-02-04T01:42:51;100062.09;;;1.35;100.00
63190;BME280;49286;44.460;26.114;2023-02-04T01:45:18;100016.28;;;1.29;100.00
63190;BME280;49286;44.460;26.114;2023-02-04T01:47:44;100043.44;;;1.45;100.00
63190;BME280;49286;44.460;26.114;2023-02-04T01:50:13;100024.97;;;1.33;100.00
63190;BME280;49286;44.460;26.114;2023-02-04T01:52:40;100036.31;;;1.36;100.00
63190;BME280;49286;44.460;26.114;2023-02-04T01:55:18;99875.81;;;0.70;100.00
63190;BME280;49286;44.460;26.114;2023-02-04T01:57:44;99886.38;;;0.77;100.00
63190;BME280;49286;44.460;26.114;2023-02-04T02:00:16;99867.75;;;0.59;100.00
63190;BME280;49286;44.460;26.114;2023-02-04T02:02:45;99980.03;;;1.27;100.00
63190;BME280;49286;44.460;26.114;2023-02-04T02:05:15;99974.41;;;1.41;100.00
63190;BME280;49286;44.460;26.114;2023-02-04T02:07:42;99831.75;;;0.65;100.00
63190;BME280;49286;44.460;26.114;2023-02-04T02:10:09;99886.38;;;1.06;100.00
63190;BME280;49286;44.460;26.114;2023-02-04T02:12:36;99953.88;;;1.45;100.00
63190;BME280;49286;44.460;26.114;2023-02-04T02:15:02;99775.63;;;0.29;100.00
63190;BME280;49286;44.460;26.114;2023-02-04T02:17:28;99962.75;;;1.55;100.00
63190;BME280;49286;44.460;26.114;2023-02-04T02:19:54;99824.56;;;0.82;100.00
63190;BME280;49286;44.460;26.114;2023-02-04T02:22:32;99921.72;;;1.37;100.00
63190;BME280;49286;44.460;26.114;2023-02-04T02:25:00;99823.63;;;0.80;100.00
63190;BME280;49286;44.460;26.114;2023-02-04T02:27:26;99792.50;;;0.75;100.00
63190;BME280;49286;44.460;26.114;2023-02-04T02:29:51;99927.38;;;1.54;100.00
63190;BME280;49286;44.460;26.114;2023-02-04T02:32:18;99862.81;;;1.25;100.00
63190;BME280;49286;44.460;26.114;2023-02-04T02:34:45;99716.97;;;0.52;100.00
63190;BME280;49286;44.460;26.114;2023-02-04T02:37:11;99778.31;;;0.91;100.00
63190;BME280;49286;44.460;26.114;2023-02-04T02:39:38;99805.63;;;1.13;100.00
63190;BME280;49286;44.460;26.114;2023-02-04T02:42:05;99845.97;;;1.38;100.00
63190;BME280;49286;44.460;26.114;2023-02-04T02:44:31;99856.44;;;1.44;100.00
63190;BME280;49286;44.460;26.114;2023-02-04T02:46:57;99661.63;;;0.43;100.00
63190;BME280;49286;44.460;26.114;2023-02-04T02:49:23;99823.09;;;1.54;100.00
63190;BME280;49286;44.460;26.114;2023-02-04T02:51:48;99711.94;;;0.89;100.00
63190;BME280;49286;44.460;26.114;2023-02-04T02:54:29;99659.66;;;0.64;100.00
63190;BME280;49286;44.460;26.114;2023-02-04T02:56:56;99791.09;;;1.48;100.00
63190;BME280;49286;44.460;26.114;2023-02-04T02:59:23;99784.06;;;1.44;100.00
63190;BME280;49286;44.460;26.114;2023-02-04T03:01:54;99771.13;;;1.43;100.00
63190;BME280;49286;44.460;26.114;2023-02-04T03:04:22;99650.38;;;0.71;100.00
63190;BME280;49286;44.460;26.114;2023-02-04T03:06:49;99776.78;;;1.30;100.00
63190;BME280;49286;44.460;26.114;2023-02-04T03:09:16;99655.88;;;0.53;100.00
63190;BME280;49286;44.460;26.114;2023-02-04T03:11:42;99730.28;;;0.98;100.00
63190;BME280;49286;44.460;26.114;2023-02-04T03:14:07;99585.28;;;0.19;100.00
63190;BME280;49286;44.460;26.114;2023-02-04T03:16:34;99676.16;;;1.02;100.00
63190;BME280;49286;44.460;26.114;2023-02-04T03:19:02;99551.03;;;0.25;100.00
63190;BME280;49286;44.460;26.114;2023-02-04T03:21:29;99699.06;;;1.22;100.00
63190;BME280;49286;44.460;26.114;2023-02-04T03:23:55;99667.63;;;1.05;100.00
63190;BME280;49286;44.460;26.114;2023-02-04T03:26:22;99543.84;;;0.45;100.00
63190;BME280;49286;44.460;26.114;2023-02-04T03:28:48;99690.91;;;1.07;100.00
63190;BME280;49286;44.460;26.114;2023-02-04T03:31:13;99675.16;;;1.31;100.00
63190;BME280;49286;44.460;26.114;2023-02-04T03:33:39;99514.25;;;0.32;100.00
63190;BME280;49286;44.460;26.114;2023-02-04T03:36:05;99533.75;;;0.54;100.00
63190;BME280;49286;44.460;26.114;2023-02-04T03:38:31;99634.25;;;1.13;100.00
63190;BME280;49286;44.460;26.114;2023-02-04T03:40:58;99615.25;;;1.11;100.00
63190;BME280;49286;44.460;26.114;2023-02-04T03:43:24;99516.81;;;0.65;100.00
63190;BME280;49286;44.460;26.114;2023-02-04T03:45:49;99567.91;;;0.77;100.00
63190;BME280;49286;44.460;26.114;2023-02-04T03:48:15;99541.13;;;0.73;100.00
63190;BME280;49286;44.460;26.114;2023-02-04T03:50:40;99646.25;;;1.45;100.00
63190;BME280;49286;44.460;26.114;2023-02-04T03:53:06;99617.16;;;1.19;100.00
63190;BME280;49286;44.460;26.114;2023-02-04T03:55:32;99512.56;;;0.67;100.00
63190;BME280;49286;44.460;26.114;2023-02-04T03:57:57;99491.84;;;0.64;100.00
63190;BME280;49286;44.460;26.114;2023-02-04T04:00:23;99640.06;;;1.40;100.00
63190;BME280;49286;44.460;26.114;2023-02-04T04:02:48;99478.53;;;0.47;100.00
63190;BME280;49286;44.460;26.114;2023-02-04T04:05:14;99526.28;;;0.99;100.00
63190;BME280;49286;44.460;26.114;2023-02-04T04:07:39;99484.22;;;0.69;100.00
63190;BME280;49286;44.460;26.114;2023-02-04T04:10:05;99594.34;;;1.38;100.00
63190;BME280;49286;44.460;26.114;2023-02-04T04:12:30;99481.47;;;0.61;100.00
63190;BME280;49286;44.460;26.114;2023-02-04T04:14:56;99504.88;;;0.69;100.00
63190;BME280;49286;44.460;26.114;2023-02-04T04:17:22;99604.69;;;1.38;100.00
63190;BME280;49286;44.460;26.114;2023-02-04T04:19:47;99567.41;;;1.26;100.00
63190;BME280;49286;44.460;26.114;2023-02-04T04:22:13;99596.81;;;1.33;100.00
63190;BME280;49286;44.460;26.114;2023-02-04T04:24:40;99593.38;;;1.33;100.00
63190;BME280;49286;44.460;26.114;2023-02-04T04:27:05;99594.47;;;1.42;100.00
63190;BME280;49286;44.460;26.114;2023-02-04T04:29:31;99505.56;;;0.96;100.00
63190;BME280;49286;44.460;26.114;2023-02-04T04:31:56;99582.66;;;1.54;100.00
63190;BME280;49286;44.460;26.114;2023-02-04T04:34:22;99461.16;;;0.76;100.00
63190;BME280;49286;44.460;26.114;2023-02-04T04:36:47;99570.59;;;1.54;100.00
63190;BME280;49286;44.460;26.114;2023-02-04T04:39:13;99563.66;;;1.50;100.00
63190;BME280;49286;44.460;26.114;2023-02-04T04:41:38;99462.41;;;0.92;100.00
63190;BME280;49286;44.460;26.114;2023-02-04T04:44:04;99473.28;;;0.79;100.00
63190;BME280;49286;44.460;26.114;2023-02-04T04:46:29;99598.13;;;1.52;100.00
63190;BME280;49286;44.460;26.114;2023-02-04T04:48:55;99431.41;;;0.54;100.00
63190;BME280;49286;44.460;26.114;2023-02-04T04:51:20;99559.66;;;1.28;100.00
63190;BME280;49286;44.460;26.114;2023-02-04T04:53:46;99543.13;;;1.20;100.00
63190;BME280;49286;44.460;26.114;2023-02-04T04:56:12;99403.03;;;0.56;100.00
63190;BME280;49286;44.460;26.114;2023-02-04T04:58:37;99443.75;;;0.68;100.00
63190;BME280;49286;44.460;26.114;2023-02-04T05:01:03;99568.00;;;1.53;100.00
63190;BME280;49286;44.460;26.114;2023-02-04T05:03:28;99586.38;;;1.65;100.00
63190;BME280;49286;44.460;26.114;2023-02-04T05:05:54;99552.59;;;1.57;100.00
63190;BME280;49286;44.460;26.114;2023-02-04T05:08:19;99565.84;;;1.71;100.00
63190;BME280;49286;44.460;26.114;2023-02-04T05:10:45;99571.94;;;1.75;100.00
63190;BME280;49286;44.460;26.114;2023-02-04T05:13:11;99586.47;;;1.69;100.00
63190;BME280;49286;44.460;26.114;2023-02-04T05:15:37;99580.69;;;1.81;100.00
63190;BME280;49286;44.460;26.114;2023-02-04T05:18:03;99457.63;;;1.09;100.00
63190;BME280;49286;44.460;26.114;2023-02-04T05:20:29;99587.66;;;1.84;100.00
63190;BME280;49286;44.460;26.114;2023-02-04T05:22:55;99573.75;;;1.79;100.00
63190;BME280;49286;44.460;26.114;2023-02-04T05:25:21;99446.72;;;1.22;100.00
63190;BME280;49286;44.460;26.114;2023-02-04T05:27:47;99567.00;;;1.87;100.00
63190;BME280;49286;44.460;26.114;2023-02-04T05:30:13;99432.03;;;1.20;100.00
63190;BME280;49286;44.460;26.114;2023-02-04T05:32:39;99569.69;;;1.92;100.00
63190;BME280;49286;44.460;26.114;2023-02-04T05:35:05;99569.06;;;2.02;100.00
63190;BME280;49286;44.460;26.114;2023-02-04T05:37:30;99526.44;;;1.83;100.00
63190;BME280;49286;44.460;26.114;2023-02-04T05:39:56;99584.59;;;2.03;100.00
63190;BME280;49286;44.460;26.114;2023-02-04T05:42:22;99596.47;;;1.92;100.00
63190;BME280;49286;44.460;26.114;2023-02-04T05:44:48;99570.75;;;2.01;100.00
63190;BME280;49286;44.460;26.114;2023-02-04T05:47:13;99587.28;;;2.06;100.00
63190;BME280;49286;44.460;26.114;2023-02-04T05:49:39;99560.69;;;2.15;100.00
63190;BME280;49286;44.460;26.114;2023-02-04T05:52:05;99443.78;;;1.46;100.00
63190;BME280;49286;44.460;26.114;2023-02-04T05:54:30;99432.03;;;1.21;100.00
63190;BME280;49286;44.460;26.114;2023-02-04T05:56:56;99444.56;;;1.42;100.00
63190;BME280;49286;44.460;26.114;2023-02-04T05:59:21;99592.78;;;2.23;100.00
63190;BME280;49286;44.460;26.114;2023-02-04T06:01:47;99463.25;;;1.72;100.00
63190;BME280;49286;44.460;26.114;2023-02-04T06:04:12;99471.06;;;1.75;100.00
63190;BME280;49286;44.460;26.114;2023-02-04T06:06:41;99490.50;;;1.97;100.00
63190;BME280;49286;44.460;26.114;2023-02-04T06:09:06;99468.53;;;1.78;100.00
63190;BME280;49286;44.460;26.114;2023-02-04T06:11:31;99579.38;;;2.44;100.00
63190;BME280;49286;44.460;26.114;2023-02-04T06:13:57;99448.84;;;1.42;100.00
63190;BME280;49286;44.460;26.114;2023-02-04T06:16:22;99541.06;;;2.26;100.00
63190;BME280;49286;44.460;26.114;2023-02-04T06:18:48;99590.84;;;2.57;100.00
63190;BME280;49286;44.460;26.114;2023-02-04T06:21:13;99477.38;;;1.87;100.00
63190;BME280;49286;44.460;26.114;2023-02-04T06:23:39;99453.97;;;1.81;100.00
63190;BME280;49286;44.460;26.114;2023-02-04T06:26:04;99490.13;;;1.78;100.00
63190;BME280;49286;44.460;26.114;2023-02-04T06:28:30;99457.31;;;1.76;100.00
63190;BME280;49286;44.460;26.114;2023-02-04T06:30:55;99624.66;;;2.65;100.00
63190;BME280;49286;44.460;26.114;2023-02-04T06:33:21;99608.31;;;2.69;100.00
63190;BME280;49286;44.460;26.114;2023-02-04T06:35:48;99485.91;;;1.83;100.00
63190;BME280;49286;44.460;26.114;2023-02-04T06:38:14;99491.19;;;1.88;100.00
63190;BME280;49286;44.460;26.114;2023-02-04T06:40:39;99487.81;;;1.92;100.00
63190;BME280;49286;44.460;26.114;2023-02-04T06:43:05;99449.69;;;1.83;100.00
63190;BME280;49286;44.460;26.114;2023-02-04T06:45:30;99584.78;;;2.57;100.00
63190;BME280;49286;44.460;26.114;2023-02-04T06:47:56;99612.72;;;2.73;100.00
63190;BME280;49286;44.460;26.114;2023-02-04T06:50:21;99617.50;;;2.99;100.00
63190;BME280;49286;44.460;26.114;2023-02-04T06:52:47;99632.03;;;2.89;100.00
63190;BME280;49286;44.460;26.114;2023-02-04T06:55:13;99533.22;;;2.22;100.00
63190;BME280;49286;44.460;26.114;2023-02-04T06:57:39;99622.31;;;2.77;100.00
63190;BME280;49286;44.460;26.114;2023-02-04T07:00:06;99655.47;;;2.95;100.00
63190;BME280;49286;44.460;26.114;2023-02-04T07:02:32;99506.03;;;1.98;100.00
63190;BME280;49286;44.460;26.114;2023-02-04T07:04:57;99596.75;;;2.48;100.00
63190;BME280;49286;44.460;26.114;2023-02-04T07:07:25;99653.47;;;2.82;100.00
63190;BME280;49286;44.460;26.114;2023-02-04T07:09:50;99648.84;;;2.67;100.00
63190;BME280;49286;44.460;26.114;2023-02-04T07:12:16;99559.53;;;2.01;100.00
63190;BME280;49286;44.460;26.114;2023-02-04T07:14:41;99643.66;;;2.65;100.00
63190;BME280;49286;44.460;26.114;2023-02-04T07:17:07;99644.44;;;2.61;100.00
63190;BME280;49286;44.460;26.114;2023-02-04T07:19:32;99643.31;;;2.47;100.00
63190;BME280;49286;44.460;26.114;2023-02-04T07:21:59;99683.72;;;2.40;100.00
63190;BME280;49286;44.460;26.114;2023-02-04T07:24:24;99678.75;;;2.49;100.00
63190;BME280;49286;44.460;26.114;2023-02-04T07:26:50;99671.16;;;2.59;100.00
63190;BME280;49286;44.460;26.114;2023-02-04T07:29:16;99621.19;;;2.20;100.00
63190;BME280;49286;44.460;26.114;2023-02-04T07:31:43;99677.63;;;2.38;100.00
63190;BME280;49286;44.460;26.114;2023-02-04T07:34:14;99561.91;;;1.90;100.00
63190;BME280;49286;44.460;26.114;2023-02-04T07:36:40;99619.53;;;2.24;100.00
63190;BME280;49286;44.460;26.114;2023-02-04T07:39:06;99579.31;;;1.99;100.00
63190;BME280;49286;44.460;26.114;2023-02-04T07:41:32;99668.31;;;2.46;100.00
63190;BME280;49286;44.460;26.114;2023-02-04T07:43:57;99654.47;;;2.44;100.00
63190;BME280;49286;44.460;26.114;2023-02-04T07:46:23;99557.31;;;1.77;100.00
63190;BME280;49286;44.460;26.114;2023-02-04T07:48:48;99618.44;;;2.13;100.00
63190;BME280;49286;44.460;26.114;2023-02-04T07:51:14;99579.06;;;1.86;100.00
63190;BME280;49286;44.460;26.114;2023-02-04T07:53:39;99607.06;;;2.06;100.00
63190;BME280;49286;44.460;26.114;2023-02-04T07:56:05;99578.38;;;1.94;100.00
63190;BME280;49286;44.460;26.114;2023-02-04T07:58:30;99547.75;;;1.73;100.00
63190;BME280;49286;44.460;26.114;2023-02-04T08:00:56;99569.44;;;1.79;100.00
63190;BME280;49286;44.460;26.114;2023-02-04T08:03:21;99583.56;;;1.56;100.00
63190;BME280;49286;44.460;26.114;2023-02-04T08:05:47;99695.31;;;2.58;100.00
63190;BME280;49286;44.460;26.114;2023-02-04T08:08:12;99703.00;;;2.54;100.00
63190;BME280;49286;44.460;26.114;2023-02-04T08:10:38;99685.81;;;2.58;100.00
63190;BME280;49286;44.460;26.114;2023-02-04T08:13:03;99697.00;;;2.57;100.00
63190;BME280;49286;44.460;26.114;2023-02-04T08:15:29;99657.63;;;2.29;100.00
63190;BME280;49286;44.460;26.114;2023-02-04T08:17:54;99717.47;;;2.87;100.00
63190;BME280;49286;44.460;26.114;2023-02-04T08:20:19;99622.22;;;2.28;100.00
63190;BME280;49286;44.460;26.114;2023-02-04T08:22:45;99592.50;;;2.09;100.00
63190;BME280;49286;44.460;26.114;2023-02-04T08:25:11;99751.38;;;2.98;100.00
63190;BME280;49286;44.460;26.114;2023-02-04T08:27:37;99616.84;;;2.19;100.00
63190;BME280;49286;44.460;26.114;2023-02-04T08:30:03;99739.34;;;3.02;100.00
63190;BME280;49286;44.460;26.114;2023-02-04T08:32:29;99649.06;;;2.33;100.00
63190;BME280;49286;44.460;26.114;2023-02-04T08:34:56;99721.84;;;2.88;100.00
63190;BME280;49286;44.460;26.114;2023-02-04T08:37:22;99670.38;;;2.20;100.00
63190;BME280;49286;44.460;26.114;2023-02-04T08:39:47;99657.44;;;2.22;100.00
63190;BME280;49286;44.460;26.114;2023-02-04T08:42:13;99805.41;;;2.80;100.00
63190;BME280;49286;44.460;26.114;2023-02-04T08:44:40;99751.69;;;2.69;100.00
63190;BME280;49286;44.460;26.114;2023-02-04T08:47:06;99831.19;;;3.14;100.00
63190;BME280;49286;44.460;26.114;2023-02-04T08:49:32;99610.22;;;1.91;100.00
63190;BME280;49286;44.460;26.114;2023-02-04T08:51:57;99844.53;;;3.34;100.00
63190;BME280;49286;44.460;26.114;2023-02-04T08:54:23;99849.00;;;3.40;100.00
63190;BME280;49286;44.460;26.114;2023-02-04T08:56:50;99851.97;;;3.17;100.00
63190;BME280;49286;44.460;26.114;2023-02-04T08:59:16;99838.94;;;2.73;100.00
63190;BME280;49286;44.460;26.114;2023-02-04T09:01:41;99773.38;;;2.76;100.00
63190;BME280;49286;44.460;26.114;2023-02-04T09:04:07;99791.84;;;2.91;100.00
63190;BME280;49286;44.460;26.114;2023-02-04T09:06:32;99910.72;;;3.58;100.00
63190;BME280;49286;44.460;26.114;2023-02-04T09:08:58;99882.81;;;3.45;100.00
63190;BME280;49286;44.460;26.114;2023-02-04T09:11:23;99894.00;;;3.44;100.00
63190;BME280;49286;44.460;26.114;2023-02-04T09:13:49;99812.66;;;2.96;100.00
63190;BME280;49286;44.460;26.114;2023-02-04T09:16:14;99913.47;;;3.66;100.00
63190;BME280;49286;44.460;26.114;2023-02-04T09:18:42;99942.97;;;3.71;100.00
63190;BME280;49286;44.460;26.114;2023-02-04T09:21:07;99925.59;;;3.67;100.00
63190;BME280;49286;44.460;26.114;2023-02-04T09:23:33;99942.94;;;3.69;100.00
63190;BME280;49286;44.460;26.114;2023-02-04T09:25:58;99854.53;;;3.14;100.00
63190;BME280;49286;44.460;26.114;2023-02-04T09:28:25;99901.00;;;3.48;100.00
63190;BME280;49286;44.460;26.114;2023-02-04T09:30:51;99869.56;;;3.32;100.00
63190;BME280;49286;44.460;26.114;2023-02-04T09:33:16;99909.28;;;3.72;100.00
63190;BME280;49286;44.460;26.114;2023-02-04T09:35:43;99963.00;;;3.78;100.00
63190;BME280;49286;44.460;26.114;2023-02-04T09:38:08;99829.63;;;3.23;100.00
63190;BME280;49286;44.460;26.114;2023-02-04T09:40:40;99965.28;;;4.05;100.00
63190;BME280;49286;44.460;26.114;2023-02-04T09:43:09;99844.53;;;3.33;100.00
63190;BME280;49286;44.460;26.114;2023-02-04T09:45:36;99829.25;;;3.48;100.00
63190;BME280;49286;44.460;26.114;2023-02-04T09:48:04;99947.81;;;3.96;100.00
63190;BME280;49286;44.460;26.114;2023-02-04T09:50:31;99966.06;;;4.02;100.00
63190;BME280;49286;44.460;26.114;2023-02-04T09:52:59;99936.81;;;4.10;100.00
63190;BME280;49286;44.460;26.114;2023-02-04T09:55:29;99875.59;;;3.75;100.00
63190;BME280;49286;44.460;26.114;2023-02-04T09:57:56;99868.56;;;3.68;100.00
63190;BME280;49286;44.460;26.114;2023-02-04T10:00:24;99863.31;;;3.67;100.00
63190;BME280;49286;44.460;26.114;2023-02-04T10:02:50;99997.78;;;4.32;100.00
63190;BME280;49286;44.460;26.114;2023-02-04T10:05:23;100002.63;;;4.13;100.00
63190;BME280;49286;44.460;26.114;2023-02-04T10:07:52;99965.06;;;3.94;100.00
63190;BME280;49286;44.460;26.114;2023-02-04T10:10:20;99889.78;;;3.49;100.00
63190;BME280;49286;44.460;26.114;2023-02-04T10:12:50;100016.72;;;3.82;100.00
63190;BME280;49286;44.460;26.114;2023-02-04T10:15:18;99903.66;;;2.36;100.00
63190;BME280;49286;44.460;26.114;2023-02-04T10:17:46;99940.97;;;3.16;100.00
63190;BME280;49286;44.460;26.114;2023-02-04T10:20:18;99865.84;;;2.79;100.00
63190;BME280;49286;44.460;26.114;2023-02-04T10:22:49;100007.78;;;3.68;100.00
63190;BME280;49286;44.460;26.114;2023-02-04T10:25:20;99963.03;;;2.98;100.00
63190;BME280;49286;44.460;26.114;2023-02-04T10:27:55;99799.00;;;2.62;100.00
63190;BME280;49286;44.460;26.114;2023-02-04T10:30:30;99991.25;;;4.07;100.00
63190;BME280;49286;44.460;26.114;2023-02-04T10:33:14;99868.78;;;3.35;100.00
63190;BME280;49286;44.460;26.114;2023-02-04T10:35:45;99937.38;;;3.95;100.00
63190;BME280;49286;44.460;26.114;2023-02-04T10:38:10;99938.06;;;3.86;100.00
63190;BME280;49286;44.460;26.114;2023-02-04T10:40:36;100002.94;;;4.29;100.00
63190;BME280;49286;44.460;26.114;2023-02-04T10:43:09;99998.00;;;4.44;100.00
63190;BME280;49286;44.460;26.114;2023-02-04T10:45:37;99979.88;;;4.47;100.00
63190;BME280;49286;44.460;26.114;2023-02-04T10:48:03;99869.91;;;3.95;100.00
63190;BME280;49286;44.460;26.114;2023-02-04T10:50:29;99958.31;;;4.51;100.00
63190;BME280;49286;44.460;26.114;2023-02-04T10:52:57;99873.88;;;3.76;100.00
63190;BME280;49286;44.460;26.114;2023-02-04T10:55:42;99973.72;;;4.40;100.00
63190;BME280;49286;44.460;26.114;2023-02-04T10:58:10;99975.34;;;4.85;100.00
63190;BME280;49286;44.460;26.114;2023-02-04T11:00:37;99852.34;;;4.32;100.00
63190;BME280;49286;44.460;26.114;2023-02-04T11:03:09;99976.53;;;4.53;100.00
63190;BME280;49286;44.460;26.114;2023-02-04T11:05:35;99973.13;;;4.58;100.00
63190;BME280;49286;44.460;26.114;2023-02-04T11:08:11;99964.03;;;4.83;100.00
63190;BME280;49286;44.460;26.114;2023-02-04T11:10:42;99963.00;;;4.22;100.00
63190;BME280;49286;44.460;26.114;2023-02-04T11:13:21;99906.22;;;3.95;100.00
63190;BME280;49286;44.460;26.114;2023-02-04T11:15:48;99972.00;;;4.41;100.00
63190;BME280;49286;44.460;26.114;2023-02-04T11:20:51;99846.84;;;3.63;100.00
63190;BME280;49286;44.460;26.114;2023-02-04T11:26:12;99981.22;;;4.25;100.00
63190;BME280;49286;44.460;26.114;2023-02-04T11:29:07;99941.16;;;4.11;100.00
63190;BME280;49286;44.460;26.114;2023-02-04T11:34:09;99998.25;;;4.11;100.00
63190;BME280;49286;44.460;26.114;2023-02-04T11:39:48;99992.03;;;4.02;100.00
63190;BME280;49286;44.460;26.114;2023-02-04T11:42:31;99993.75;;;4.02;100.00
63190;BME280;49286;44.460;26.114;2023-02-04T11:47:38;99955.00;;;3.67;100.00
63190;BME280;49286;44.460;26.114;2023-02-04T11:50:22;99866.47;;;3.08;100.00
63190;BME280;49286;44.460;26.114;2023-02-04T11:52:50;100006.34;;;3.84;100.00
63190;BME280;49286;44.460;26.114;2023-02-04T11:55:15;99975.06;;;3.76;100.00
63190;BME280;49286;44.460;26.114;2023-02-04T11:57:42;99981.03;;;3.70;100.00
63190;BME280;49286;44.460;26.114;2023-02-04T12:00:22;100005.31;;;3.74;100.00
63190;BME280;49286;44.460;26.114;2023-02-04T12:02:59;99894.31;;;3.16;100.00
63190;BME280;49286;44.460;26.114;2023-02-04T12:05:42;100005.72;;;3.95;100.00
63190;BME280;49286;44.460;26.114;2023-02-04T12:08:22;99879.28;;;3.02;100.00
63190;BME280;49286;44.460;26.114;2023-02-04T12:13:24;99961.75;;;3.59;100.00
63190;BME280;49286;44.460;26.114;2023-02-04T12:16:02;100003.16;;;3.54;100.00
63190;BME280;49286;44.460;26.114;2023-02-04T12:18:32;100000.09;;;3.33;100.00
63190;BME280;49286;44.460;26.114;2023-02-04T12:20:58;99897.81;;;2.79;100.00
63190;BME280;49286;44.460;26.114;2023-02-04T12:23:26;99882.16;;;2.76;100.00
63190;BME280;49286;44.460;26.114;2023-02-04T12:25:52;99982.63;;;3.24;100.00
63190;BME280;49286;44.460;26.114;2023-02-04T12:28:18;99983.81;;;3.01;100.00
63190;BME280;49286;44.460;26.114;2023-02-04T12:30:43;99976.16;;;3.05;100.00
63190;BME280;49286;44.460;26.114;2023-02-04T12:33:09;99880.41;;;2.37;100.00
63190;BME280;49286;44.460;26.114;2023-02-04T12:35:35;99993.69;;;3.17;100.00
63190;BME280;49286;44.460;26.114;2023-02-04T12:38:01;99803.13;;;1.81;100.00
63190;BME280;49286;44.460;26.114;2023-02-04T12:40:27;99889.78;;;2.32;100.00
63190;BME280;49286;44.460;26.114;2023-02-04T12:42:52;99901.28;;;2.08;100.00
63190;BME280;49286;44.460;26.114;2023-02-04T12:45:18;99910.00;;;2.47;100.00
63190;BME280;49286;44.460;26.114;2023-02-04T12:47:45;99996.50;;;2.55;100.00
63190;BME280;49286;44.460;26.114;2023-02-04T12:50:13;99872.69;;;2.04;100.00
63190;BME280;49286;44.460;26.114;2023-02-04T12:52:39;99901.06;;;2.01;100.00
63190;BME280;49286;44.460;26.114;2023-02-04T12:55:06;100027.94;;;2.69;100.00
63190;BME280;49286;44.460;26.114;2023-02-04T12:57:33;100042.47;;;2.62;100.00
63190;BME280;49286;44.460;26.114;2023-02-04T12:59:59;100036.44;;;2.63;100.00
63190;BME280;49286;44.460;26.114;2023-02-04T13:02:27;99927.38;;;1.54;100.00